Farber, Missouri
Current Conditions -  °F | °C
As of 12:07 PM on Wednesday 26 Nov 2014 (Local Time) from KCOU Reporting Station
Overcast Overcast  
Wind Chill: 35°   Ceiling: 1400
Heat Index: 40°   Visibility: 10mi
Dew Point: 36°   Wind: 7mph
Humidity: 86%   Direction: 260°W
Pressure: 29.94"   Gusts: NA
Location:  39.27°N, 91.57°W
Report Text: KCOU 261807Z 26006KT 10SM OVC014 04/02 A2994 RMK AO2 T00440022
Loading
Personal Weather Stations






























Interactive Weather Map New forecast layout! Learn more

10-Day Weather Forecast

Advertisements
Track Severe Weather on mobile